sensor_id;sensor_type;location;lat;lon;timestamp;P1;durP1;ratioP1;P2;durP2;ratioP2
71164;SDS011;58859;55.132;-1.586;2022-11-15T00:00:02;25.67;;;11.10;;
71164;SDS011;58859;55.132;-1.586;2022-11-15T00:02:28;23.20;;;9.98;;
71164;SDS011;58859;55.132;-1.586;2022-11-15T00:04:54;27.30;;;11.10;;
71164;SDS011;58859;55.132;-1.586;2022-11-15T00:07:19;31.50;;;12.57;;
71164;SDS011;58859;55.132;-1.586;2022-11-15T00:09:44;30.63;;;11.37;;
71164;SDS011;58859;55.132;-1.586;2022-11-15T00:12:10;30.07;;;10.90;;
71164;SDS011;58859;55.132;-1.586;2022-11-15T00:14:35;28.20;;;11.30;;
71164;SDS011;58859;55.132;-1.586;2022-11-15T00:17:00;26.67;;;10.20;;
71164;SDS011;58859;55.132;-1.586;2022-11-15T00:19:26;30.30;;;13.00;;
71164;SDS011;58859;55.132;-1.586;2022-11-15T00:21:51;37.03;;;11.77;;
71164;SDS011;58859;55.132;-1.586;2022-11-15T00:24:17;33.07;;;11.73;;
71164;SDS011;58859;55.132;-1.586;2022-11-15T00:26:42;27.67;;;12.27;;
71164;SDS011;58859;55.132;-1.586;2022-11-15T00:29:07;31.88;;;12.35;;
71164;SDS011;58859;55.132;-1.586;2022-11-15T00:31:33;24.80;;;10.80;;
71164;SDS011;58859;55.132;-1.586;2022-11-15T00:33:58;31.10;;;11.30;;
71164;SDS011;58859;55.132;-1.586;2022-11-15T00:36:23;28.47;;;11.33;;
71164;SDS011;58859;55.132;-1.586;2022-11-15T00:38:49;30.37;;;11.53;;
71164;SDS011;58859;55.132;-1.586;2022-11-15T00:41:14;32.13;;;12.60;;
71164;SDS011;58859;55.132;-1.586;2022-11-15T00:43:40;30.00;;;11.63;;
71164;SDS011;58859;55.132;-1.586;2022-11-15T00:46:08;27.90;;;10.77;;
71164;SDS011;58859;55.132;-1.586;2022-11-15T00:48:34;27.73;;;11.88;;
71164;SDS011;58859;55.132;-1.586;2022-11-15T00:51:00;27.85;;;12.02;;
71164;SDS011;58859;55.132;-1.586;2022-11-15T00:53:26;27.37;;;11.00;;
71164;SDS011;58859;55.132;-1.586;2022-11-15T00:55:51;24.77;;;11.67;;
71164;SDS011;58859;55.132;-1.586;2022-11-15T00:58:16;23.63;;;10.50;;
71164;SDS011;58859;55.132;-1.586;2022-11-15T01:00:42;23.57;;;10.60;;
71164;SDS011;58859;55.132;-1.586;2022-11-15T01:03:07;26.37;;;11.37;;
71164;SDS011;58859;55.132;-1.586;2022-11-15T01:05:33;26.43;;;11.73;;
71164;SDS011;58859;55.132;-1.586;2022-11-15T01:07:58;28.07;;;12.20;;
71164;SDS011;58859;55.132;-1.586;2022-11-15T01:10:23;32.08;;;12.82;;
71164;SDS011;58859;55.132;-1.586;2022-11-15T01:12:50;30.77;;;11.13;;
71164;SDS011;58859;55.132;-1.586;2022-11-15T01:15:16;29.23;;;11.85;;
71164;SDS011;58859;55.132;-1.586;2022-11-15T01:17:41;25.93;;;11.17;;
71164;SDS011;58859;55.132;-1.586;2022-11-15T01:20:07;28.00;;;12.03;;
71164;SDS011;58859;55.132;-1.586;2022-11-15T01:22:33;27.70;;;11.30;;
71164;SDS011;58859;55.132;-1.586;2022-11-15T01:24:58;29.60;;;12.13;;
71164;SDS011;58859;55.132;-1.586;2022-11-15T01:27:24;32.50;;;12.10;;
71164;SDS011;58859;55.132;-1.586;2022-11-15T01:29:49;33.10;;;12.02;;
71164;SDS011;58859;55.132;-1.586;2022-11-15T01:32:15;25.88;;;10.50;;
71164;SDS011;58859;55.132;-1.586;2022-11-15T01:34:40;31.73;;;11.93;;
71164;SDS011;58859;55.132;-1.586;2022-11-15T01:37:05;28.77;;;11.17;;
71164;SDS011;58859;55.132;-1.586;2022-11-15T01:39:31;31.85;;;12.82;;
71164;SDS011;58859;55.132;-1.586;2022-11-15T01:41:56;24.92;;;11.23;;
71164;SDS011;58859;55.132;-1.586;2022-11-15T01:47:00;30.38;;;11.82;;
71164;SDS011;58859;55.132;-1.586;2022-11-15T01:49:27;26.83;;;12.47;;
71164;SDS011;58859;55.132;-1.586;2022-11-15T01:51:55;26.15;;;10.82;;
71164;SDS011;58859;55.132;-1.586;2022-11-15T01:54:20;31.58;;;13.32;;
71164;SDS011;58859;55.132;-1.586;2022-11-15T01:56:53;25.87;;;12.13;;
71164;SDS011;58859;55.132;-1.586;2022-11-15T01:59:24;30.80;;;12.32;;
71164;SDS011;58859;55.132;-1.586;2022-11-15T02:01:49;28.77;;;13.40;;
71164;SDS011;58859;55.132;-1.586;2022-11-15T02:04:16;26.63;;;12.48;;
71164;SDS011;58859;55.132;-1.586;2022-11-15T02:06:43;29.60;;;13.33;;
71164;SDS011;58859;55.132;-1.586;2022-11-15T02:09:09;29.00;;;13.68;;
71164;SDS011;58859;55.132;-1.586;2022-11-15T02:11:35;24.00;;;12.48;;
71164;SDS011;58859;55.132;-1.586;2022-11-15T02:14:01;32.50;;;13.30;;
71164;SDS011;58859;55.132;-1.586;2022-11-15T02:27:07;22.70;;;10.88;;
71164;SDS011;58859;55.132;-1.586;2022-11-15T02:32:29;22.58;;;11.23;;
71164;SDS011;58859;55.132;-1.586;2022-11-15T02:35:00;25.17;;;10.60;;
71164;SDS011;58859;55.132;-1.586;2022-11-15T02:42:35;27.02;;;11.00;;
71164;SDS011;58859;55.132;-1.586;2022-11-15T02:45:25;29.33;;;12.90;;
71164;SDS011;58859;55.132;-1.586;2022-11-15T02:47:54;23.80;;;11.93;;
71164;SDS011;58859;55.132;-1.586;2022-11-15T02:50:21;24.17;;;11.73;;
71164;SDS011;58859;55.132;-1.586;2022-11-15T02:52:48;21.77;;;11.00;;
71164;SDS011;58859;55.132;-1.586;2022-11-15T03:00:45;22.23;;;11.70;;
71164;SDS011;58859;55.132;-1.586;2022-11-15T03:03:25;25.95;;;12.40;;
71164;SDS011;58859;55.132;-1.586;2022-11-15T03:09:01;23.80;;;12.70;;
71164;SDS011;58859;55.132;-1.586;2022-11-15T03:11:49;24.98;;;12.88;;
71164;SDS011;58859;55.132;-1.586;2022-11-15T03:20:06;29.30;;;13.50;;
71164;SDS011;58859;55.132;-1.586;2022-11-15T03:22:25;27.05;;;10.85;;
71164;SDS011;58859;55.132;-1.586;2022-11-15T03:24:54;28.75;;;12.82;;
71164;SDS011;58859;55.132;-1.586;2022-11-15T03:27:27;26.17;;;12.40;;
71164;SDS011;58859;55.132;-1.586;2022-11-15T03:29:59;26.27;;;12.05;;
71164;SDS011;58859;55.132;-1.586;2022-11-15T03:32:31;28.75;;;12.38;;
71164;SDS011;58859;55.132;-1.586;2022-11-15T03:35:04;22.42;;;11.32;;
71164;SDS011;58859;55.132;-1.586;2022-11-15T03:38:19;21.38;;;10.43;;
71164;SDS011;58859;55.132;-1.586;2022-11-15T03:40:41;21.90;;;11.33;;
71164;SDS011;58859;55.132;-1.586;2022-11-15T03:46:19;24.17;;;11.43;;
71164;SDS011;58859;55.132;-1.586;2022-11-15T03:48:59;21.58;;;10.05;;
71164;SDS011;58859;55.132;-1.586;2022-11-15T03:51:33;26.23;;;10.30;;
71164;SDS011;58859;55.132;-1.586;2022-11-15T03:53:58;24.30;;;10.60;;
71164;SDS011;58859;55.132;-1.586;2022-11-15T03:56:24;22.67;;;10.30;;
71164;SDS011;58859;55.132;-1.586;2022-11-15T03:58:49;22.03;;;10.47;;
71164;SDS011;58859;55.132;-1.586;2022-11-15T04:01:14;23.97;;;10.77;;
71164;SDS011;58859;55.132;-1.586;2022-11-15T04:03:40;27.30;;;9.95;;
71164;SDS011;58859;55.132;-1.586;2022-11-15T04:06:05;19.48;;;8.65;;
71164;SDS011;58859;55.132;-1.586;2022-11-15T04:08:31;22.03;;;10.57;;
71164;SDS011;58859;55.132;-1.586;2022-11-15T04:10:56;26.53;;;9.87;;
71164;SDS011;58859;55.132;-1.586;2022-11-15T04:13:21;19.70;;;9.80;;
71164;SDS011;58859;55.132;-1.586;2022-11-15T04:15:47;20.53;;;9.47;;
71164;SDS011;58859;55.132;-1.586;2022-11-15T04:18:12;21.63;;;9.73;;
71164;SDS011;58859;55.132;-1.586;2022-11-15T04:20:38;21.90;;;9.40;;
71164;SDS011;58859;55.132;-1.586;2022-11-15T04:23:22;19.77;;;9.45;;
71164;SDS011;58859;55.132;-1.586;2022-11-15T04:26:14;17.13;;;9.65;;
71164;SDS011;58859;55.132;-1.586;2022-11-15T04:28:42;19.67;;;9.18;;
71164;SDS011;58859;55.132;-1.586;2022-11-15T04:31:26;18.20;;;8.32;;
71164;SDS011;58859;55.132;-1.586;2022-11-15T04:33:52;24.13;;;8.88;;
71164;SDS011;58859;55.132;-1.586;2022-11-15T04:36:17;19.30;;;8.70;;
71164;SDS011;58859;55.132;-1.586;2022-11-15T04:39:02;16.42;;;8.60;;
71164;SDS011;58859;55.132;-1.586;2022-11-15T04:41:27;17.48;;;8.73;;
71164;SDS011;58859;55.132;-1.586;2022-11-15T04:43:54;21.80;;;9.20;;
71164;SDS011;58859;55.132;-1.586;2022-11-15T04:46:19;17.48;;;9.50;;
71164;SDS011;58859;55.132;-1.586;2022-11-15T04:48:44;24.43;;;8.27;;
71164;SDS011;58859;55.132;-1.586;2022-11-15T04:51:10;18.13;;;8.07;;
71164;SDS011;58859;55.132;-1.586;2022-11-15T04:53:35;17.80;;;8.50;;
71164;SDS011;58859;55.132;-1.586;2022-11-15T04:56:01;15.43;;;7.50;;
71164;SDS011;58859;55.132;-1.586;2022-11-15T04:58:26;22.95;;;7.95;;
71164;SDS011;58859;55.132;-1.586;2022-11-15T05:00:51;18.87;;;9.00;;
71164;SDS011;58859;55.132;-1.586;2022-11-15T05:03:17;20.13;;;7.93;;
71164;SDS011;58859;55.132;-1.586;2022-11-15T05:06:01;20.00;;;8.35;;
71164;SDS011;58859;55.132;-1.586;2022-11-15T05:08:27;18.73;;;8.53;;
71164;SDS011;58859;55.132;-1.586;2022-11-15T05:10:52;23.00;;;7.90;;
71164;SDS011;58859;55.132;-1.586;2022-11-15T05:13:17;20.07;;;9.67;;
71164;SDS011;58859;55.132;-1.586;2022-11-15T05:15:43;18.17;;;8.73;;
71164;SDS011;58859;55.132;-1.586;2022-11-15T05:18:08;20.80;;;9.67;;
71164;SDS011;58859;55.132;-1.586;2022-11-15T05:20:34;20.03;;;8.77;;
71164;SDS011;58859;55.132;-1.586;2022-11-15T05:22:59;22.85;;;9.32;;
71164;SDS011;58859;55.132;-1.586;2022-11-15T05:25:24;21.13;;;10.10;;
71164;SDS011;58859;55.132;-1.586;2022-11-15T05:27:50;18.00;;;8.83;;
71164;SDS011;58859;55.132;-1.586;2022-11-15T05:30:15;21.93;;;9.47;;
71164;SDS011;58859;55.132;-1.586;2022-11-15T05:32:42;19.13;;;8.88;;
71164;SDS011;58859;55.132;-1.586;2022-11-15T05:35:08;19.95;;;9.82;;
71164;SDS011;58859;55.132;-1.586;2022-11-15T05:37:37;19.92;;;10.02;;
71164;SDS011;58859;55.132;-1.586;2022-11-15T05:40:03;21.38;;;10.60;;
71164;SDS011;58859;55.132;-1.586;2022-11-15T05:42:28;25.25;;;10.40;;
71164;SDS011;58859;55.132;-1.586;2022-11-15T05:44:54;19.63;;;9.95;;
71164;SDS011;58859;55.132;-1.586;2022-11-15T05:47:22;19.40;;;10.40;;
71164;SDS011;58859;55.132;-1.586;2022-11-15T05:49:49;17.45;;;9.20;;
71164;SDS011;58859;55.132;-1.586;2022-11-15T05:52:16;19.60;;;9.52;;
71164;SDS011;58859;55.132;-1.586;2022-11-15T05:54:43;19.10;;;8.93;;
71164;SDS011;58859;55.132;-1.586;2022-11-15T05:57:08;19.98;;;8.98;;
71164;SDS011;58859;55.132;-1.586;2022-11-15T05:59:34;21.40;;;9.77;;
71164;SDS011;58859;55.132;-1.586;2022-11-15T06:01:59;22.87;;;8.37;;
71164;SDS011;58859;55.132;-1.586;2022-11-15T06:04:25;23.85;;;9.48;;
71164;SDS011;58859;55.132;-1.586;2022-11-15T06:06:50;18.13;;;7.47;;
71164;SDS011;58859;55.132;-1.586;2022-11-15T06:09:16;19.57;;;9.33;;
71164;SDS011;58859;55.132;-1.586;2022-11-15T06:11:41;17.37;;;7.60;;
71164;SDS011;58859;55.132;-1.586;2022-11-15T06:14:06;16.27;;;8.10;;
71164;SDS011;58859;55.132;-1.586;2022-11-15T06:16:32;16.23;;;7.80;;
71164;SDS011;58859;55.132;-1.586;2022-11-15T06:18:57;15.10;;;7.40;;
71164;SDS011;58859;55.132;-1.586;2022-11-15T06:21:22;14.00;;;6.60;;
71164;SDS011;58859;55.132;-1.586;2022-11-15T06:23:48;13.97;;;7.83;;
71164;SDS011;58859;55.132;-1.586;2022-11-15T06:26:13;18.97;;;8.23;;
71164;SDS011;58859;55.132;-1.586;2022-11-15T06:28:39;16.80;;;7.90;;
71164;SDS011;58859;55.132;-1.586;2022-11-15T06:31:07;14.38;;;6.65;;
71164;SDS011;58859;55.132;-1.586;2022-11-15T06:33:34;19.03;;;7.40;;
71164;SDS011;58859;55.132;-1.586;2022-11-15T06:36:03;13.68;;;7.72;;
71164;SDS011;58859;55.132;-1.586;2022-11-15T06:38:29;18.80;;;7.60;;
71164;SDS011;58859;55.132;-1.586;2022-11-15T06:40:55;16.73;;;7.63;;
71164;SDS011;58859;55.132;-1.586;2022-11-15T06:43:25;20.67;;;7.97;;
71164;SDS011;58859;55.132;-1.586;2022-11-15T06:45:51;15.93;;;7.20;;
71164;SDS011;58859;55.132;-1.586;2022-11-15T06:48:16;14.63;;;6.30;;
71164;SDS011;58859;55.132;-1.586;2022-11-15T06:50:41;16.77;;;6.53;;
71164;SDS011;58859;55.132;-1.586;2022-11-15T06:53:07;18.47;;;6.37;;
71164;SDS011;58859;55.132;-1.586;2022-11-15T06:55:32;12.70;;;6.13;;
71164;SDS011;58859;55.132;-1.586;2022-11-15T06:57:57;15.50;;;6.22;;
71164;SDS011;58859;55.132;-1.586;2022-11-15T07:00:23;14.20;;;5.53;;
71164;SDS011;58859;55.132;-1.586;2022-11-15T07:02:48;12.60;;;5.43;;
71164;SDS011;58859;55.132;-1.586;2022-11-15T07:05:14;14.87;;;6.10;;
71164;SDS011;58859;55.132;-1.586;2022-11-15T07:07:40;11.38;;;5.25;;
71164;SDS011;58859;55.132;-1.586;2022-11-15T07:10:06;10.23;;;5.47;;
71164;SDS011;58859;55.132;-1.586;2022-11-15T07:12:32;7.82;;;5.03;;
71164;SDS011;58859;55.132;-1.586;2022-11-15T07:14:57;11.43;;;4.57;;
71164;SDS011;58859;55.132;-1.586;2022-11-15T07:17:23;13.60;;;4.25;;
71164;SDS011;58859;55.132;-1.586;2022-11-15T07:19:48;11.40;;;3.73;;
71164;SDS011;58859;55.132;-1.586;2022-11-15T07:22:14;12.57;;;4.30;;
71164;SDS011;58859;55.132;-1.586;2022-11-15T07:24:39;8.23;;;4.30;;
71164;SDS011;58859;55.132;-1.586;2022-11-15T07:27:04;11.57;;;4.00;;
71164;SDS011;58859;55.132;-1.586;2022-11-15T07:29:30;8.27;;;3.40;;
71164;SDS011;58859;55.132;-1.586;2022-11-15T07:31:55;9.20;;;4.03;;
71164;SDS011;58859;55.132;-1.586;2022-11-15T07:34:20;6.68;;;2.58;;
71164;SDS011;58859;55.132;-1.586;2022-11-15T07:36:46;9.13;;;3.27;;
71164;SDS011;58859;55.132;-1.586;2022-11-15T07:39:11;11.50;;;3.80;;
71164;SDS011;58859;55.132;-1.586;2022-11-15T07:41:37;8.73;;;3.20;;
71164;SDS011;58859;55.132;-1.586;2022-11-15T07:44:03;9.77;;;2.97;;
71164;SDS011;58859;55.132;-1.586;2022-11-15T07:46:29;13.00;;;3.07;;
71164;SDS011;58859;55.132;-1.586;2022-11-15T07:48:54;13.55;;;3.53;;
71164;SDS011;58859;55.132;-1.586;2022-11-15T07:51:19;8.63;;;3.20;;
71164;SDS011;58859;55.132;-1.586;2022-11-15T07:53:45;10.53;;;3.40;;
71164;SDS011;58859;55.132;-1.586;2022-11-15T07:56:11;6.87;;;2.40;;
71164;SDS011;58859;55.132;-1.586;2022-11-15T07:58:37;10.10;;;2.45;;
71164;SDS011;58859;55.132;-1.586;2022-11-15T08:01:06;8.50;;;3.07;;
71164;SDS011;58859;55.132;-1.586;2022-11-15T08:03:32;8.68;;;2.35;;
71164;SDS011;58859;55.132;-1.586;2022-11-15T08:05:58;17.42;;;2.80;;
71164;SDS011;58859;55.132;-1.586;2022-11-15T08:08:23;4.87;;;2.17;;
71164;SDS011;58859;55.132;-1.586;2022-11-15T08:10:48;5.67;;;2.30;;
71164;SDS011;58859;55.132;-1.586;2022-11-15T08:13:14;9.13;;;2.53;;
71164;SDS011;58859;55.132;-1.586;2022-11-15T08:15:40;9.45;;;2.83;;
71164;SDS011;58859;55.132;-1.586;2022-11-15T08:18:06;9.27;;;2.10;;
71164;SDS011;58859;55.132;-1.586;2022-11-15T08:20:34;11.18;;;2.30;;
71164;SDS011;58859;55.132;-1.586;2022-11-15T08:23:00;10.07;;;2.73;;
71164;SDS011;58859;55.132;-1.586;2022-11-15T08:25:27;12.73;;;2.85;;
71164;SDS011;58859;55.132;-1.586;2022-11-15T08:27:54;8.07;;;2.07;;
71164;SDS011;58859;55.132;-1.586;2022-11-15T08:30:21;10.32;;;2.83;;
71164;SDS011;58859;55.132;-1.586;2022-11-15T08:32:47;14.52;;;2.90;;
71164;SDS011;58859;55.132;-1.586;2022-11-15T08:35:13;7.22;;;2.20;;
71164;SDS011;58859;55.132;-1.586;2022-11-15T08:37:39;12.47;;;2.87;;
71164;SDS011;58859;55.132;-1.586;2022-11-15T08:40:04;11.93;;;2.30;;
71164;SDS011;58859;55.132;-1.586;2022-11-15T08:42:30;10.52;;;3.05;;
71164;SDS011;58859;55.132;-1.586;2022-11-15T08:44:56;5.03;;;1.90;;
71164;SDS011;58859;55.132;-1.586;2022-11-15T08:47:21;10.43;;;2.53;;
71164;SDS011;58859;55.132;-1.586;2022-11-15T08:49:47;10.90;;;2.50;;
71164;SDS011;58859;55.132;-1.586;2022-11-15T08:52:13;11.47;;;2.77;;
71164;SDS011;58859;55.132;-1.586;2022-11-15T08:54:39;10.07;;;2.40;;
71164;SDS011;58859;55.132;-1.586;2022-11-15T08:57:04;8.53;;;1.77;;
71164;SDS011;58859;55.132;-1.586;2022-11-15T08:59:30;10.07;;;2.00;;
71164;SDS011;58859;55.132;-1.586;2022-11-15T09:01:55;15.00;;;3.45;;
71164;SDS011;58859;55.132;-1.586;2022-11-15T09:04:20;9.03;;;3.00;;
71164;SDS011;58859;55.132;-1.586;2022-11-15T09:06:46;15.53;;;3.17;;
71164;SDS011;58859;55.132;-1.586;2022-11-15T09:09:11;5.80;;;1.60;;
71164;SDS011;58859;55.132;-1.586;2022-11-15T09:11:37;5.53;;;2.27;;
71164;SDS011;58859;55.132;-1.586;2022-11-15T09:14:02;9.02;;;2.45;;
71164;SDS011;58859;55.132;-1.586;2022-11-15T09:16:27;10.00;;;2.60;;
71164;SDS011;58859;55.132;-1.586;2022-11-15T09:18:55;4.72;;;2.00;;
71164;SDS011;58859;55.132;-1.586;2022-11-15T09:21:21;8.10;;;1.83;;
71164;SDS011;58859;55.132;-1.586;2022-11-15T09:23:46;7.77;;;2.40;;
71164;SDS011;58859;55.132;-1.586;2022-11-15T09:26:12;8.30;;;2.63;;
71164;SDS011;58859;55.132;-1.586;2022-11-15T09:28:38;6.43;;;1.85;;
71164;SDS011;58859;55.132;-1.586;2022-11-15T09:31:06;5.53;;;2.00;;
71164;SDS011;58859;55.132;-1.586;2022-11-15T09:33:32;6.97;;;2.27;;
71164;SDS011;58859;55.132;-1.586;2022-11-15T09:36:01;7.60;;;2.00;;
71164;SDS011;58859;55.132;-1.586;2022-11-15T09:38:31;8.63;;;2.90;;
71164;SDS011;58859;55.132;-1.586;2022-11-15T09:41:06;4.05;;;2.08;;
71164;SDS011;58859;55.132;-1.586;2022-11-15T09:46:46;6.82;;;2.22;;
71164;SDS011;58859;55.132;-1.586;2022-11-15T09:49:15;8.10;;;2.00;;
71164;SDS011;58859;55.132;-1.586;2022-11-15T09:51:45;5.18;;;1.85;;
71164;SDS011;58859;55.132;-1.586;2022-11-15T09:54:47;10.43;;;2.42;;
71164;SDS011;58859;55.132;-1.586;2022-11-15T09:57:13;6.40;;;2.00;;
71164;SDS011;58859;55.132;-1.586;2022-11-15T10:04:49;11.25;;;2.88;;
71164;SDS011;58859;55.132;-1.586;2022-11-15T10:09:56;11.70;;;2.93;;
71164;SDS011;58859;55.132;-1.586;2022-11-15T10:12:44;10.80;;;2.30;;
71164;SDS011;58859;55.132;-1.586;2022-11-15T10:15:12;11.35;;;2.42;;
71164;SDS011;58859;55.132;-1.586;2022-11-15T10:23:13;8.93;;;2.43;;
71164;SDS011;58859;55.132;-1.586;2022-11-15T10:25:40;10.52;;;3.17;;
71164;SDS011;58859;55.132;-1.586;2022-11-15T10:28:22;10.40;;;3.37;;
71164;SDS011;58859;55.132;-1.586;2022-11-15T10:30:51;11.98;;;3.78;;
71164;SDS011;58859;55.132;-1.586;2022-11-15T10:41:20;10.60;;;4.33;;
71164;SDS011;58859;55.132;-1.586;2022-11-15T10:46:36;16.77;;;5.45;;
71164;SDS011;58859;55.132;-1.586;2022-11-15T10:49:25;14.55;;;5.60;;
71164;SDS011;58859;55.132;-1.586;2022-11-15T10:54:43;7.43;;;3.43;;
71164;SDS011;58859;55.132;-1.586;2022-11-15T10:57:12;14.27;;;5.60;;
71164;SDS011;58859;55.132;-1.586;2022-11-15T10:59:39;6.55;;;4.47;;
71164;SDS011;58859;55.132;-1.586;2022-11-15T11:04:57;16.55;;;5.32;;
71164;SDS011;58859;55.132;-1.586;2022-11-15T11:07:23;12.70;;;5.30;;
71164;SDS011;58859;55.132;-1.586;2022-11-15T11:09:57;7.93;;;4.68;;
71164;SDS011;58859;55.132;-1.586;2022-11-15T11:12:27;14.18;;;4.78;;
71164;SDS011;58859;55.132;-1.586;2022-11-15T11:15:00;11.67;;;5.37;;
71164;SDS011;58859;55.132;-1.586;2022-11-15T11:23:29;13.90;;;4.47;;
71164;SDS011;58859;55.132;-1.586;2022-11-15T11:29:11;9.90;;;3.63;;
71164;SDS011;58859;55.132;-1.586;2022-11-15T11:31:57;9.40;;;3.22;;
71164;SDS011;58859;55.132;-1.586;2022-11-15T11:34:41;7.28;;;3.05;;
71164;SDS011;58859;55.132;-1.586;2022-11-15T11:45:47;7.40;;;3.97;;
71164;SDS011;58859;55.132;-1.586;2022-11-15T11:51:18;8.88;;;3.22;;
71164;SDS011;58859;55.132;-1.586;2022-11-15T11:53:49;12.60;;;3.85;;
71164;SDS011;58859;55.132;-1.586;2022-11-15T11:56:23;8.80;;;3.20;;
71164;SDS011;58859;55.132;-1.586;2022-11-15T11:58:52;10.95;;;3.42;;
71164;SDS011;58859;55.132;-1.586;2022-11-15T12:04:24;7.43;;;3.03;;
71164;SDS011;58859;55.132;-1.586;2022-11-15T12:07:08;5.95;;;2.90;;
71164;SDS011;58859;55.132;-1.586;2022-11-15T12:13:02;8.18;;;2.30;;
71164;SDS011;58859;55.132;-1.586;2022-11-15T12:15:32;3.78;;;2.33;;
71164;SDS011;58859;55.132;-1.586;2022-11-15T12:18:02;8.70;;;2.38;;
71164;SDS011;58859;55.132;-1.586;2022-11-15T12:20:34;8.87;;;2.73;;
71164;SDS011;58859;55.132;-1.586;2022-11-15T12:23:08;9.18;;;2.90;;
71164;SDS011;58859;55.132;-1.586;2022-11-15T12:25:47;4.47;;;1.90;;
71164;SDS011;58859;55.132;-1.586;2022-11-15T12:30:56;6.77;;;2.73;;
71164;SDS011;58859;55.132;-1.586;2022-11-15T12:33:29;7.45;;;2.25;;
71164;SDS011;58859;55.132;-1.586;2022-11-15T12:35:57;5.22;;;2.13;;
71164;SDS011;58859;55.132;-1.586;2022-11-15T12:41:18;7.05;;;2.00;;
71164;SDS011;58859;55.132;-1.586;2022-11-15T12:43:44;11.17;;;2.23;;
71164;SDS011;58859;55.132;-1.586;2022-11-15T12:57:49;13.00;;;3.57;;
71164;SDS011;58859;55.132;-1.586;2022-11-15T13:02:20;4.35;;;1.95;;
71164;SDS011;58859;55.132;-1.586;2022-11-15T13:10:47;11.33;;;2.90;;
71164;SDS011;58859;55.132;-1.586;2022-11-15T13:12:58;9.27;;;2.42;;
71164;SDS011;58859;55.132;-1.586;2022-11-15T13:18:43;8.32;;;1.88;;
71164;SDS011;58859;55.132;-1.586;2022-11-15T13:20:58;6.88;;;1.98;;
71164;SDS011;58859;55.132;-1.586;2022-11-15T13:23:24;8.93;;;2.03;;
71164;SDS011;58859;55.132;-1.586;2022-11-15T13:26:07;6.88;;;2.45;;
71164;SDS011;58859;55.132;-1.586;2022-11-15T13:28:36;8.93;;;2.60;;
71164;SDS011;58859;55.132;-1.586;2022-11-15T13:31:23;9.17;;;2.30;;
71164;SDS011;58859;55.132;-1.586;2022-11-15T13:33:52;8.82;;;1.73;;
71164;SDS011;58859;55.132;-1.586;2022-11-15T13:36:23;7.90;;;2.22;;
71164;SDS011;58859;55.132;-1.586;2022-11-15T13:38:54;3.58;;;1.88;;
71164;SDS011;58859;55.132;-1.586;2022-11-15T13:41:24;10.88;;;2.88;;
71164;SDS011;58859;55.132;-1.586;2022-11-15T13:43:53;7.67;;;2.30;;
71164;SDS011;58859;55.132;-1.586;2022-11-15T13:46:20;5.13;;;1.63;;
71164;SDS011;58859;55.132;-1.586;2022-11-15T13:48:57;10.02;;;2.75;;
71164;SDS011;58859;55.132;-1.586;2022-11-15T13:51:38;12.82;;;3.33;;
71164;SDS011;58859;55.132;-1.586;2022-11-15T13:54:16;8.43;;;2.53;;
71164;SDS011;58859;55.132;-1.586;2022-11-15T13:56:48;6.23;;;1.30;;
71164;SDS011;58859;55.132;-1.586;2022-11-15T13:59:28;8.13;;;2.05;;
71164;SDS011;58859;55.132;-1.586;2022-11-15T14:01:57;4.28;;;1.98;;
71164;SDS011;58859;55.132;-1.586;2022-11-15T14:04:26;7.30;;;2.40;;
71164;SDS011;58859;55.132;-1.586;2022-11-15T14:06:58;5.22;;;2.00;;
71164;SDS011;58859;55.132;-1.586;2022-11-15T14:14:54;10.63;;;2.20;;
71164;SDS011;58859;55.132;-1.586;2022-11-15T14:17:21;14.00;;;2.25;;
71164;SDS011;58859;55.132;-1.586;2022-11-15T14:19:58;5.68;;;2.00;;
71164;SDS011;58859;55.132;-1.586;2022-11-15T14:22:25;10.80;;;2.97;;
71164;SDS011;58859;55.132;-1.586;2022-11-15T14:25:07;6.53;;;2.15;;
71164;SDS011;58859;55.132;-1.586;2022-11-15T14:27:44;8.07;;;1.85;;
71164;SDS011;58859;55.132;-1.586;2022-11-15T14:30:29;6.95;;;2.45;;
71164;SDS011;58859;55.132;-1.586;2022-11-15T14:32:55;6.80;;;1.60;;
71164;SDS011;58859;55.132;-1.586;2022-11-15T14:35:21;4.83;;;1.93;;
71164;SDS011;58859;55.132;-1.586;2022-11-15T14:37:47;4.53;;;2.40;;
71164;SDS011;58859;55.132;-1.586;2022-11-15T14:40:14;4.40;;;2.00;;
71164;SDS011;58859;55.132;-1.586;2022-11-15T14:42:42;6.05;;;3.22;;
71164;SDS011;58859;55.132;-1.586;2022-11-15T14:45:15;5.50;;;2.67;;
71164;SDS011;58859;55.132;-1.586;2022-11-15T14:47:45;3.33;;;1.83;;
71164;SDS011;58859;55.132;-1.586;2022-11-15T14:50:20;4.82;;;1.80;;
71164;SDS011;58859;55.132;-1.586;2022-11-15T14:52:46;4.15;;;3.33;;
71164;SDS011;58859;55.132;-1.586;2022-11-15T14:55:17;3.88;;;2.17;;
71164;SDS011;58859;55.132;-1.586;2022-11-15T14:57:45;5.93;;;3.47;;
71164;SDS011;58859;55.132;-1.586;2022-11-15T15:00:11;3.95;;;3.15;;
71164;SDS011;58859;55.132;-1.586;2022-11-15T15:02:37;19.77;;;4.90;;
71164;SDS011;58859;55.132;-1.586;2022-11-15T15:05:13;4.57;;;3.63;;
71164;SDS011;58859;55.132;-1.586;2022-11-15T15:07:45;5.47;;;3.85;;
71164;SDS011;58859;55.132;-1.586;2022-11-15T15:10:11;4.75;;;2.58;;
71164;SDS011;58859;55.132;-1.586;2022-11-15T15:12:37;7.15;;;2.47;;
71164;SDS011;58859;55.132;-1.586;2022-11-15T15:15:03;7.63;;;3.03;;
71164;SDS011;58859;55.132;-1.586;2022-11-15T15:17:29;4.95;;;2.90;;
71164;SDS011;58859;55.132;-1.586;2022-11-15T15:19:54;4.32;;;2.67;;
71164;SDS011;58859;55.132;-1.586;2022-11-15T15:22:20;3.83;;;2.40;;
71164;SDS011;58859;55.132;-1.586;2022-11-15T15:24:47;5.07;;;2.53;;
71164;SDS011;58859;55.132;-1.586;2022-11-15T15:27:13;7.60;;;3.40;;
71164;SDS011;58859;55.132;-1.586;2022-11-15T15:29:39;6.65;;;3.13;;
71164;SDS011;58859;55.132;-1.586;2022-11-15T15:32:04;5.40;;;2.90;;
71164;SDS011;58859;55.132;-1.586;2022-11-15T15:34:30;5.97;;;3.70;;
71164;SDS011;58859;55.132;-1.586;2022-11-15T15:39:49;6.00;;;3.60;;
71164;SDS011;58859;55.132;-1.586;2022-11-15T15:42:19;3.75;;;2.60;;
71164;SDS011;58859;55.132;-1.586;2022-11-15T15:44:45;4.35;;;2.30;;
71164;SDS011;58859;55.132;-1.586;2022-11-15T15:47:11;6.47;;;3.72;;
71164;SDS011;58859;55.132;-1.586;2022-11-15T15:49:37;7.13;;;4.20;;
71164;SDS011;58859;55.132;-1.586;2022-11-15T15:52:03;7.43;;;3.50;;
71164;SDS011;58859;55.132;-1.586;2022-11-15T15:54:28;8.67;;;5.27;;
71164;SDS011;58859;55.132;-1.586;2022-11-15T15:56:54;5.10;;;2.80;;
71164;SDS011;58859;55.132;-1.586;2022-11-15T15:59:20;5.05;;;2.53;;
71164;SDS011;58859;55.132;-1.586;2022-11-15T16:01:45;5.07;;;3.67;;
71164;SDS011;58859;55.132;-1.586;2022-11-15T16:04:11;8.38;;;3.50;;
71164;SDS011;58859;55.132;-1.586;2022-11-15T16:06:37;5.25;;;3.17;;
71164;SDS011;58859;55.132;-1.586;2022-11-15T16:09:04;3.42;;;2.78;;
71164;SDS011;58859;55.132;-1.586;2022-11-15T16:11:30;4.00;;;2.33;;
71164;SDS011;58859;55.132;-1.586;2022-11-15T16:13:55;4.03;;;2.40;;
71164;SDS011;58859;55.132;-1.586;2022-11-15T16:16:21;2.95;;;1.92;;
71164;SDS011;58859;55.132;-1.586;2022-11-15T16:18:46;5.10;;;2.53;;
71164;SDS011;58859;55.132;-1.586;2022-11-15T16:21:12;4.90;;;2.58;;
71164;SDS011;58859;55.132;-1.586;2022-11-15T16:23:37;2.03;;;1.83;;
71164;SDS011;58859;55.132;-1.586;2022-11-15T16:26:06;5.10;;;2.30;;
71164;SDS011;58859;55.132;-1.586;2022-11-15T16:28:48;3.33;;;2.10;;
71164;SDS011;58859;55.132;-1.586;2022-11-15T16:31:14;4.25;;;2.35;;
71164;SDS011;58859;55.132;-1.586;2022-11-15T16:33:41;5.17;;;2.13;;
71164;SDS011;58859;55.132;-1.586;2022-11-15T16:36:23;2.95;;;1.85;;
71164;SDS011;58859;55.132;-1.586;2022-11-15T16:38:49;3.25;;;1.98;;
71164;SDS011;58859;55.132;-1.586;2022-11-15T16:41:15;1.90;;;1.70;;
71164;SDS011;58859;55.132;-1.586;2022-11-15T16:43:43;1.75;;;1.65;;